Time;durP1;ratioP1;P1;durP2;ratioP2;P2;SDS_P1;SDS_P2;PMS_P1;PMS_P2;Temp;Humidity;BMP_temperature;BMP_pressure;BME280_temperature;BME280_humidity;BME280_pressure;Samples;Min_cycle;Max_cycle;Signal;HPM_P1;HPM_P2
2023/03/09 00:01:15;;;;;;;14.40;8.97;;;6.20;99.90;;;;;;5113587;28;20453;-68
2023/03/09 00:03:40;;;;;;;14.50;10.20;;;6.20;99.90;;;;;;5117308;27;20160;-68
2023/03/09 00:06:06;;;;;;;15.67;9.20;;;6.00;99.90;;;;;;5135194;27;20453;-68
2023/03/09 00:08:32;;;;;;;13.70;10.00;;;5.90;99.90;;;;;;5132436;27;20532;-68
2023/03/09 00:10:58;;;;;;;12.67;9.27;;;6.00;99.90;;;;;;5132778;27;20429;-68
2023/03/09 00:13:24;;;;;;;10.53;7.97;;;6.00;99.90;;;;;;5132680;28;20417;-68
2023/03/09 00:15:50;;;;;;;16.90;9.40;;;6.10;99.90;;;;;;5121813;27;20180;-68
2023/03/09 00:18:20;;;;;;;10.50;8.63;;;6.10;99.90;;;;;;5119272;27;20402;-69
2023/03/09 00:20:46;;;;;;;15.40;10.50;;;6.20;99.90;;;;;;5116206;28;20183;-68
2023/03/09 00:23:11;;;;;;;13.20;8.37;;;6.30;99.90;;;;;;5116358;28;20862;-68
2023/03/09 00:25:37;;;;;;;13.37;10.00;;;6.30;99.90;;;;;;5116559;28;20476;-68
2023/03/09 00:28:03;;;;;;;12.40;9.70;;;6.30;99.90;;;;;;5116619;28;20649;-68
2023/03/09 00:30:29;;;;;;;12.27;8.27;;;6.40;99.90;;;;;;5116291;28;20418;-68
2023/03/09 00:32:54;;;;;;;16.17;9.13;;;6.40;99.90;;;;;;5117123;28;20204;-68
2023/03/09 00:35:20;;;;;;;9.40;6.10;;;6.50;99.90;;;;;;5117522;28;20161;-68
2023/03/09 00:37:46;;;;;;;12.90;8.70;;;6.50;99.90;;;;;;5116967;28;20193;-68
2023/03/09 00:40:14;;;;;;;17.60;9.60;;;6.60;99.90;;;;;;5117213;28;20183;-68
2023/03/09 00:42:42;;;;;;;14.30;10.70;;;6.60;99.90;;;;;;5117152;28;20441;-68
2023/03/09 00:45:08;;;;;;;12.40;9.13;;;6.60;99.90;;;;;;5117235;28;20402;-68
2023/03/09 00:47:34;;;;;;;10.17;8.20;;;6.60;99.90;;;;;;5123737;27;20416;-68
2023/03/09 00:50:00;;;;;;;14.77;9.30;;;6.70;99.90;;;;;;5137687;27;20401;-68
2023/03/09 00:52:25;;;;;;;12.47;9.07;;;6.70;99.90;;;;;;5137588;27;20252;-68
2023/03/09 00:54:53;;;;;;;12.30;9.17;;;6.70;99.90;;;;;;5137360;27;20156;-68
2023/03/09 00:57:20;;;;;;;14.70;8.03;;;6.70;99.90;;;;;;5136749;27;20157;-68
2023/03/09 00:59:46;;;;;;;8.63;7.70;;;6.70;99.90;;;;;;5137290;27;20402;-68
2023/03/09 01:02:11;;;;;;;9.90;7.53;;;6.70;99.90;;;;;;5137324;27;20424;-68
2023/03/09 01:04:37;;;;;;;13.87;6.83;;;6.70;99.90;;;;;;5128142;27;20624;-68
2023/03/09 01:07:02;;;;;;;12.43;7.27;;;6.60;99.90;;;;;;5116309;28;20165;-68
2023/03/09 01:09:28;;;;;;;10.27;8.17;;;6.60;99.90;;;;;;5116157;28;20545;-68
2023/03/09 01:11:53;;;;;;;12.40;8.20;;;6.70;99.90;;;;;;5116577;28;20197;-68
2023/03/09 01:14:19;;;;;;;10.77;8.23;;;6.70;99.90;;;;;;5116102;28;20188;-68
2023/03/09 01:16:44;;;;;;;12.60;8.63;;;6.70;99.90;;;;;;5131227;27;20212;-68
2023/03/09 01:19:10;;;;;;;13.47;8.83;;;6.70;99.90;;;;;;5154084;27;20160;-68
2023/03/09 01:21:35;;;;;;;14.17;8.83;;;6.70;99.90;;;;;;5157881;27;20194;-68
2023/03/09 01:24:01;;;;;;;11.33;8.10;;;6.70;99.90;;;;;;5157376;27;20168;-68
2023/03/09 01:26:27;;;;;;;10.47;7.27;;;6.70;99.90;;;;;;5156385;27;20178;-68
2023/03/09 01:28:52;;;;;;;10.90;8.57;;;6.60;99.90;;;;;;5157030;27;20637;-68
2023/03/09 01:31:19;;;;;;;10.20;7.80;;;6.60;99.90;;;;;;5157512;27;20272;-68
2023/03/09 01:33:47;;;;;;;8.13;6.93;;;6.60;99.90;;;;;;5147599;27;20196;-68
2023/03/09 01:36:16;;;;;;;9.00;6.70;;;6.60;99.90;;;;;;5133138;27;20410;-68
2023/03/09 01:38:42;;;;;;;10.20;6.83;;;6.50;99.90;;;;;;5136724;27;20402;-69
2023/03/09 01:41:08;;;;;;;11.40;7.77;;;6.50;99.90;;;;;;5136910;27;20418;-68
2023/03/09 01:43:40;;;;;;;10.33;7.50;;;6.50;99.90;;;;;;5126133;27;20418;-68
2023/03/09 01:46:31;;;;;;;9.63;8.60;;;6.50;99.90;;;;;;5116457;28;20474;-68
2023/03/09 01:49:09;;;;;;;8.00;6.30;;;6.50;99.90;;;;;;5116134;28;20927;-68
2023/03/09 01:51:56;;;;;;;9.23;8.20;;;6.50;99.90;;;;;;5121953;27;20524;-68
2023/03/09 01:54:40;;;;;;;10.40;7.40;;;6.40;99.90;;;;;;5136971;27;20394;-68
2023/03/09 01:57:13;;;;;;;10.87;7.07;;;6.40;99.90;;;;;;5136508;27;20392;-68
2023/03/09 01:59:39;;;;;;;11.37;7.90;;;6.40;99.90;;;;;;5133815;27;20397;-68
2023/03/09 02:02:06;;;;;;;11.53;7.60;;;6.40;99.90;;;;;;5116248;28;20422;-68
2023/03/09 02:04:39;;;;;;;10.10;7.30;;;6.40;99.90;;;;;;5115379;28;20822;-68
2023/03/09 02:07:05;;;;;;;11.33;7.37;;;6.30;99.90;;;;;;5115179;28;20452;-68
2023/03/09 02:09:34;;;;;;;8.70;7.33;;;6.30;99.90;;;;;;5120425;27;20409;-68
2023/03/09 02:12:01;;;;;;;10.57;7.10;;;6.30;99.90;;;;;;5135950;27;20204;-68
2023/03/09 02:14:27;;;;;;;11.90;7.70;;;6.20;99.90;;;;;;5135407;27;20438;-68
2023/03/09 02:16:53;;;;;;;8.70;7.80;;;6.20;99.90;;;;;;5136083;27;20402;-68
2023/03/09 02:19:52;;;;;;;14.07;8.53;;;6.10;99.90;;;;;;5118710;27;20403;-68
2023/03/09 02:22:18;;;;;;;12.03;8.20;;;6.10;99.90;;;;;;5114224;28;20753;-68
2023/03/09 02:24:43;;;;;;;13.97;8.87;;;6.00;99.90;;;;;;5115896;28;20452;-68
2023/03/09 02:27:12;;;;;;;13.87;9.60;;;6.00;99.90;;;;;;5124471;27;20175;-68
2023/03/09 02:29:37;;;;;;;16.97;10.63;;;5.90;99.90;;;;;;5153701;27;20379;-68
2023/03/09 02:32:03;;;;;;;16.53;9.07;;;5.80;99.90;;;;;;5155987;27;20936;-68
2023/03/09 02:34:29;;;;;;;21.57;11.47;;;5.80;99.90;;;;;;5156974;27;20167;-68
2023/03/09 02:36:54;;;;;;;21.13;11.67;;;5.80;99.90;;;;;;5154195;27;20163;-68
2023/03/09 02:39:32;;;;;;;25.40;13.33;;;5.80;99.90;;;;;;5117891;27;20180;-68
2023/03/09 02:41:58;;;;;;;24.63;13.53;;;5.70;99.90;;;;;;5115896;28;20192;-68
2023/03/09 02:44:26;;;;;;;23.90;13.23;;;5.70;99.90;;;;;;5115351;28;20489;-68
2023/03/09 02:46:51;;;;;;;26.00;14.20;;;5.70;99.90;;;;;;5127318;27;20401;-68
2023/03/09 02:49:17;;;;;;;34.23;14.47;;;5.70;99.90;;;;;;5135882;27;20417;-68
2023/03/09 02:51:43;;;;;;;32.57;15.53;;;5.70;99.90;;;;;;5135660;27;20200;-68
2023/03/09 02:54:08;;;;;;;32.83;15.80;;;5.60;99.90;;;;;;5133153;27;20408;-68
2023/03/09 02:56:34;;;;;;;28.97;15.00;;;5.70;99.90;;;;;;5114354;28;20165;-68
2023/03/09 02:59:02;;;;;;;27.60;15.90;;;5.60;99.90;;;;;;5114986;28;20169;-68
2023/03/09 03:01:28;;;;;;;29.20;14.60;;;5.60;99.90;;;;;;5114836;28;20188;-68
2023/03/09 03:03:53;;;;;;;29.77;14.30;;;5.70;99.90;;;;;;5117127;27;20406;-68
2023/03/09 03:06:19;;;;;;;31.97;14.67;;;5.70;99.90;;;;;;5114826;28;20417;-68
2023/03/09 03:08:44;;;;;;;24.20;12.97;;;5.70;99.90;;;;;;5114678;28;20173;-68
2023/03/09 03:11:10;;;;;;;28.17;13.73;;;5.70;99.90;;;;;;5113925;28;20557;-68
2023/03/09 03:13:36;;;;;;;28.33;11.90;;;5.70;99.90;;;;;;5116398;27;20198;-68
2023/03/09 03:16:03;;;;;;;28.43;16.00;;;5.70;99.90;;;;;;5114231;28;20528;-68
2023/03/09 03:18:29;;;;;;;21.80;12.07;;;5.70;99.90;;;;;;5113909;28;20168;-68
2023/03/09 03:20:55;;;;;;;32.33;15.27;;;5.70;99.90;;;;;;5113705;28;20427;-68
2023/03/09 03:23:20;;;;;;;19.70;11.50;;;5.70;99.90;;;;;;5123270;28;20494;-68
2023/03/09 03:25:46;;;;;;;29.30;14.80;;;5.70;99.90;;;;;;5114918;28;20442;-68
2023/03/09 03:28:12;;;;;;;26.90;14.20;;;5.70;99.90;;;;;;5113651;28;20655;-68
2023/03/09 03:30:37;;;;;;;26.93;14.67;;;5.70;99.90;;;;;;5113838;28;20231;-68
2023/03/09 03:33:03;;;;;;;29.50;12.20;;;5.70;99.90;;;;;;5119810;28;20246;-68
2023/03/09 03:35:28;;;;;;;22.97;13.53;;;5.60;99.90;;;;;;5119236;28;20254;-68
2023/03/09 03:37:54;;;;;;;25.70;13.50;;;5.60;99.90;;;;;;5114135;27;20169;-68
2023/03/09 03:40:20;;;;;;;23.43;12.83;;;5.60;99.90;;;;;;5140740;27;20202;-68
2023/03/09 03:42:46;;;;;;;29.40;14.80;;;5.60;99.90;;;;;;5148089;27;20409;-68
2023/03/09 03:45:12;;;;;;;28.30;11.77;;;5.60;99.90;;;;;;5134343;28;20657;-68
2023/03/09 03:47:37;;;;;;;24.43;13.13;;;5.60;99.90;;;;;;5129082;27;20188;-68
2023/03/09 03:50:04;;;;;;;21.37;12.50;;;5.60;99.90;;;;;;5113756;28;20430;-68
2023/03/09 03:52:30;;;;;;;33.77;15.30;;;5.60;99.90;;;;;;5112743;28;20195;-68
2023/03/09 03:54:55;;;;;;;28.77;13.00;;;5.60;99.90;;;;;;5112761;28;20406;-68
2023/03/09 03:57:22;;;;;;;26.00;11.70;;;5.60;99.90;;;;;;5120573;28;20177;-68
2023/03/09 03:59:48;;;;;;;24.53;11.93;;;5.60;99.90;;;;;;5112913;28;20165;-68
2023/03/09 04:02:14;;;;;;;25.87;12.83;;;5.60;99.90;;;;;;5111873;28;20908;-68
2023/03/09 04:04:39;;;;;;;26.40;11.63;;;5.60;99.90;;;;;;5123006;28;20176;-68
2023/03/09 04:07:05;;;;;;;32.10;12.27;;;5.60;99.90;;;;;;5115526;28;20528;-68
2023/03/09 04:09:30;;;;;;;27.73;12.40;;;5.60;99.90;;;;;;5111740;28;20176;-68
2023/03/09 04:11:56;;;;;;;21.43;11.83;;;5.60;99.90;;;;;;5111063;28;20208;-67
2023/03/09 04:14:21;;;;;;;29.00;13.27;;;5.60;99.90;;;;;;5082692;27;1056424;-68
2023/03/09 04:16:47;;;;;;;21.43;9.43;;;5.60;99.90;;;;;;5134288;28;20429;-68
2023/03/09 04:19:12;;;;;;;22.30;13.37;;;5.60;99.90;;;;;;5135771;28;20168;-67
2023/03/09 04:21:38;;;;;;;23.23;13.83;;;5.60;99.90;;;;;;5135581;28;20558;-68
2023/03/09 04:24:04;;;;;;;29.80;13.13;;;5.60;99.90;;;;;;5125653;28;20176;-68
2023/03/09 04:26:29;;;;;;;26.43;12.63;;;5.60;99.90;;;;;;5114926;28;20532;-68
2023/03/09 04:28:55;;;;;;;23.57;12.53;;;5.60;99.90;;;;;;5114673;28;20489;-67
2023/03/09 04:31:21;;;;;;;21.00;11.27;;;5.60;99.90;;;;;;5115356;28;20338;-68
2023/03/09 04:33:46;;;;;;;28.90;14.13;;;5.60;99.90;;;;;;5124583;28;20169;-68
2023/03/09 04:36:12;;;;;;;26.43;12.30;;;5.60;99.90;;;;;;5112950;28;20594;-68
2023/03/09 04:38:37;;;;;;;23.70;12.87;;;5.70;99.90;;;;;;5111679;28;20628;-68
2023/03/09 04:41:03;;;;;;;24.00;12.67;;;5.70;99.90;;;;;;5111824;28;20196;-68
2023/03/09 04:43:29;;;;;;;25.87;12.77;;;5.70;99.90;;;;;;5112418;28;20165;-67
2023/03/09 04:45:54;;;;;;;20.70;12.60;;;5.70;99.90;;;;;;5120223;28;20504;-68
2023/03/09 04:48:20;;;;;;;23.70;11.47;;;5.70;99.90;;;;;;5145497;27;20544;-68
2023/03/09 04:50:45;;;;;;;24.50;12.40;;;5.70;99.90;;;;;;5135504;27;20237;-68
2023/03/09 04:53:11;;;;;;;18.17;11.20;;;5.70;99.90;;;;;;5133477;28;20204;-68
2023/03/09 04:55:37;;;;;;;22.00;11.63;;;5.80;99.90;;;;;;5121485;27;20168;-68
2023/03/09 04:58:03;;;;;;;22.03;12.13;;;5.80;99.90;;;;;;5113892;28;20165;-68
2023/03/09 05:00:29;;;;;;;24.23;11.90;;;5.80;99.90;;;;;;5113686;28;20419;-68
2023/03/09 05:02:54;;;;;;;22.50;11.67;;;5.80;99.90;;;;;;5115298;28;20497;-68
2023/03/09 05:05:20;;;;;;;29.67;13.50;;;5.80;99.90;;;;;;5130874;27;20183;-68
2023/03/09 05:07:45;;;;;;;25.60;12.70;;;5.80;99.90;;;;;;5137768;27;20167;-68
2023/03/09 05:10:11;;;;;;;28.77;13.57;;;5.80;99.90;;;;;;5134708;27;20164;-68
2023/03/09 05:12:37;;;;;;;20.57;11.00;;;5.80;99.90;;;;;;5124089;27;20200;-68
2023/03/09 05:15:03;;;;;;;16.53;11.77;;;5.80;99.90;;;;;;5115120;28;20165;-68
2023/03/09 05:17:29;;;;;;;20.23;10.30;;;5.80;99.90;;;;;;5115146;28;20157;-68
2023/03/09 05:19:54;;;;;;;16.77;10.77;;;5.80;99.90;;;;;;5115961;28;20813;-68
2023/03/09 05:22:20;;;;;;;27.20;11.90;;;5.80;99.90;;;;;;5117279;27;20195;-68
2023/03/09 05:24:46;;;;;;;22.70;11.20;;;5.80;99.90;;;;;;5116430;28;20168;-68
2023/03/09 05:27:12;;;;;;;17.60;10.20;;;5.80;99.90;;;;;;5114689;28;20188;-67
2023/03/09 05:29:39;;;;;;;24.13;13.17;;;5.80;99.90;;;;;;5114918;28;20688;-67
2023/03/09 05:32:05;;;;;;;18.93;10.60;;;5.80;99.90;;;;;;5115128;28;20489;-68
2023/03/09 05:34:30;;;;;;;18.07;9.93;;;5.80;99.90;;;;;;5114916;28;20399;-68
2023/03/09 05:36:56;;;;;;;18.63;10.93;;;5.80;99.90;;;;;;5114714;28;20560;-68
2023/03/09 05:39:21;;;;;;;17.73;9.70;;;5.80;99.90;;;;;;5117022;27;20157;-67
2023/03/09 05:41:47;;;;;;;17.10;10.00;;;5.80;99.90;;;;;;5122088;27;20189;-68
2023/03/09 05:44:13;;;;;;;22.77;10.30;;;5.80;99.90;;;;;;5115227;28;20244;-69
2023/03/09 05:46:39;;;;;;;17.77;9.63;;;5.80;99.90;;;;;;5117851;28;20172;-70
2023/03/09 05:49:04;;;;;;;22.77;11.70;;;5.80;99.90;;;;;;5116219;27;20398;-69
2023/03/09 05:51:30;;;;;;;18.77;8.47;;;5.80;99.90;;;;;;5134948;27;20585;-69
2023/03/09 05:53:56;;;;;;;15.73;9.10;;;5.70;99.90;;;;;;5143634;27;20559;-69
2023/03/09 05:56:21;;;;;;;23.70;10.23;;;5.70;99.90;;;;;;5140192;27;20602;-68
2023/03/09 05:58:50;;;;;;;14.07;7.20;;;5.70;99.90;;;;;;5123111;27;20176;-69
2023/03/09 06:01:22;;;;;;;14.90;7.97;;;5.70;99.90;;;;;;5115139;28;20193;-69
2023/03/09 06:03:48;;;;;;;14.43;7.53;;;5.70;99.90;;;;;;5118429;27;20494;-69
2023/03/09 06:06:15;;;;;;;17.07;9.93;;;5.70;99.90;;;;;;5134294;27;20476;-68
2023/03/09 06:08:40;;;;;;;11.80;8.00;;;5.70;99.90;;;;;;5125823;27;20470;-69
2023/03/09 06:11:06;;;;;;;18.50;10.43;;;5.70;99.90;;;;;;5134521;27;20422;-69
2023/03/09 06:13:32;;;;;;;16.10;8.90;;;5.70;99.90;;;;;;5134077;27;20180;-69
2023/03/09 06:15:57;;;;;;;16.20;10.00;;;5.70;99.90;;;;;;5130718;27;20403;-69
2023/03/09 06:18:23;;;;;;;13.77;8.73;;;5.80;99.90;;;;;;5116162;28;20217;-69
2023/03/09 06:20:49;;;;;;;15.30;8.27;;;5.80;99.90;;;;;;5116296;28;20181;-69
2023/03/09 06:23:15;;;;;;;9.10;6.43;;;5.80;99.90;;;;;;5117315;28;20168;-69
2023/03/09 06:25:40;;;;;;;17.13;8.50;;;5.80;99.90;;;;;;5114386;28;20176;-69
2023/03/09 06:28:06;;;;;;;11.97;7.23;;;5.80;99.90;;;;;;5114449;27;20654;-69
2023/03/09 06:30:32;;;;;;;15.03;8.77;;;5.80;99.90;;;;;;5113630;28;20549;-69
2023/03/09 06:32:58;;;;;;;19.23;9.63;;;5.80;99.90;;;;;;5113605;28;20564;-68
2023/03/09 06:35:24;;;;;;;16.40;10.23;;;5.80;99.90;;;;;;5114323;27;20493;-69
2023/03/09 06:37:50;;;;;;;19.87;9.87;;;5.80;99.90;;;;;;5132783;27;20552;-68
2023/03/09 06:40:17;;;;;;;16.67;8.43;;;5.80;99.90;;;;;;5134306;27;20394;-69
2023/03/09 06:42:43;;;;;;;18.80;9.50;;;5.80;99.90;;;;;;5134092;27;20405;-69
2023/03/09 06:45:09;;;;;;;17.30;9.53;;;5.80;99.90;;;;;;5130262;27;20767;-69
2023/03/09 06:47:35;;;;;;;16.50;9.10;;;5.80;99.90;;;;;;5113126;28;20443;-69
2023/03/09 06:50:00;;;;;;;17.63;8.20;;;5.80;99.90;;;;;;5114292;28;20409;-69
2023/03/09 06:52:26;;;;;;;14.50;8.07;;;5.70;99.90;;;;;;5114044;28;20193;-69
2023/03/09 06:54:52;;;;;;;16.00;10.00;;;5.70;99.90;;;;;;5124677;27;20172;-69
2023/03/09 06:57:18;;;;;;;15.33;8.97;;;5.70;99.90;;;;;;5112925;28;20188;-69
2023/03/09 06:59:44;;;;;;;13.60;8.80;;;5.80;99.90;;;;;;5113277;28;20427;-69
2023/03/09 07:02:13;;;;;;;20.43;7.93;;;5.80;99.90;;;;;;5113072;28;20912;-69
2023/03/09 07:04:40;;;;;;;17.33;9.03;;;5.80;99.90;;;;;;5131201;27;20171;-69
2023/03/09 07:07:05;;;;;;;17.30;8.77;;;5.90;99.90;;;;;;5143753;27;20766;-68
2023/03/09 07:09:31;;;;;;;16.07;8.33;;;5.90;99.90;;;;;;5154257;27;20419;-69
2023/03/09 07:11:57;;;;;;;16.93;8.93;;;6.00;99.90;;;;;;5154089;27;20227;-69
2023/03/09 07:14:24;;;;;;;18.97;9.23;;;6.00;99.90;;;;;;5135858;27;20514;-69
2023/03/09 07:16:53;;;;;;;16.57;10.47;;;6.10;99.90;;;;;;5133241;27;20394;-69
2023/03/09 07:19:20;;;;;;;16.27;9.20;;;6.10;99.90;;;;;;5133212;27;20413;-69
2023/03/09 07:21:46;;;;;;;15.93;8.87;;;6.20;99.90;;;;;;5124359;27;20430;-69
2023/03/09 07:24:11;;;;;;;14.13;7.80;;;6.20;99.90;;;;;;5112673;28;20407;-69
2023/03/09 07:26:37;;;;;;;12.80;9.30;;;6.30;99.90;;;;;;5112760;28;20187;-69
2023/03/09 07:29:02;;;;;;;19.20;8.60;;;6.30;99.90;;;;;;5113210;28;20173;-69
2023/03/09 07:31:29;;;;;;;13.33;7.27;;;6.50;99.90;;;;;;5129783;27;20600;-69
2023/03/09 07:33:55;;;;;;;13.43;8.10;;;6.60;99.90;;;;;;5134931;27;20183;-69
2023/03/09 07:36:22;;;;;;;13.97;7.90;;;6.70;99.90;;;;;;5134543;27;20402;-69
2023/03/09 07:38:47;;;;;;;14.07;8.73;;;6.80;99.90;;;;;;5132845;27;20475;-69
2023/03/09 07:41:13;;;;;;;14.90;8.87;;;7.00;99.90;;;;;;5133231;27;20834;-69
2023/03/09 07:43:43;;;;;;;12.23;7.30;;;7.10;99.90;;;;;;5133830;27;20175;-69
2023/03/09 07:46:11;;;;;;;12.13;7.77;;;7.20;99.90;;;;;;5133849;27;20773;-69
2023/03/09 07:48:39;;;;;;;11.90;8.03;;;7.30;99.90;;;;;;5133326;27;20412;-69
2023/03/09 07:51:06;;;;;;;9.90;6.80;;;7.40;99.90;;;;;;5127068;27;20546;-69
2023/03/09 07:53:37;;;;;;;10.47;7.13;;;7.40;99.90;;;;;;5132345;27;20485;-69
2023/03/09 07:56:04;;;;;;;11.13;5.60;;;7.40;99.90;;;;;;5132822;27;20413;-67
2023/03/09 07:58:31;;;;;;;11.73;6.70;;;7.30;99.90;;;;;;5133229;27;20508;-67
2023/03/09 08:00:57;;;;;;;11.63;6.77;;;7.40;99.90;;;;;;5132493;27;20430;-69
2023/03/09 08:03:23;;;;;;;13.37;6.83;;;7.20;99.90;;;;;;5132779;27;20492;-69
2023/03/09 08:05:55;;;;;;;10.07;6.33;;;7.00;99.90;;;;;;5114565;27;20483;-69
2023/03/09 08:08:25;;;;;;;9.83;5.80;;;7.10;99.90;;;;;;5114920;28;20418;-69
2023/03/09 08:10:52;;;;;;;9.40;5.57;;;7.10;99.90;;;;;;5133894;27;20425;-69
2023/03/09 08:13:18;;;;;;;7.63;5.00;;;7.20;99.90;;;;;;5133529;27;20496;-69
2023/03/09 08:15:43;;;;;;;8.30;5.27;;;7.30;99.90;;;;;;5134838;27;20409;-69
2023/03/09 08:18:09;;;;;;;10.13;5.10;;;7.40;99.90;;;;;;5150818;27;20460;-69
2023/03/09 08:20:36;;;;;;;4.40;4.00;;;7.50;99.90;;;;;;5156554;27;20179;-69
2023/03/09 08:23:01;;;;;;;7.33;4.67;;;7.60;99.90;;;;;;5157104;27;20747;-67
2023/03/09 08:25:27;;;;;;;5.53;4.50;;;7.60;99.90;;;;;;5156453;27;20412;-66
2023/03/09 08:27:53;;;;;;;4.80;3.63;;;7.70;99.90;;;;;;5116272;27;20192;-67
2023/03/09 08:30:20;;;;;;;6.10;4.67;;;7.80;99.90;;;;;;5111990;28;20161;-66
2023/03/09 08:32:51;;;;;;;6.47;4.57;;;7.90;99.90;;;;;;5112426;28;20477;-69
2023/03/09 08:35:18;;;;;;;6.53;4.27;;;7.90;99.90;;;;;;5114304;28;20398;-69
2023/03/09 08:37:44;;;;;;;6.00;4.40;;;7.70;99.90;;;;;;5126591;27;20410;-68
2023/03/09 08:40:11;;;;;;;5.83;4.60;;;7.60;99.90;;;;;;5138106;27;20408;-69
2023/03/09 08:42:36;;;;;;;7.13;5.00;;;7.70;99.90;;;;;;5137955;27;20414;-69
2023/03/09 08:45:03;;;;;;;9.43;5.87;;;7.90;99.90;;;;;;5135099;27;20401;-66
2023/03/09 08:47:29;;;;;;;8.40;4.97;;;7.70;99.90;;;;;;5115434;28;20271;-67
2023/03/09 08:49:55;;;;;;;7.60;5.10;;;7.70;99.90;;;;;;5115671;28;20430;-69
2023/03/09 08:52:21;;;;;;;11.13;4.90;;;7.70;99.90;;;;;;5115404;28;20489;-68
2023/03/09 08:54:46;;;;;;;8.40;5.60;;;7.80;99.90;;;;;;5119255;27;20631;-68
2023/03/09 08:57:12;;;;;;;6.60;4.80;;;7.70;99.90;;;;;;5121025;27;20168;-69
2023/03/09 08:59:39;;;;;;;8.87;5.60;;;7.80;99.90;;;;;;5116249;28;20421;-69
2023/03/09 09:02:04;;;;;;;10.00;7.10;;;7.80;99.90;;;;;;5116785;28;20536;-69
2023/03/09 09:04:30;;;;;;;5.57;4.63;;;7.70;99.90;;;;;;5115842;28;20418;-69
2023/03/09 09:06:56;;;;;;;7.90;5.13;;;8.00;99.90;;;;;;5115115;28;20251;-66
2023/03/09 09:09:21;;;;;;;7.53;4.53;;;8.30;99.90;;;;;;5115294;28;20166;-67
2023/03/09 09:11:47;;;;;;;6.27;5.10;;;8.40;99.90;;;;;;5115100;28;20558;-67
2023/03/09 09:14:14;;;;;;;6.30;4.33;;;8.50;99.90;;;;;;5114522;28;20191;-67
2023/03/09 09:16:39;;;;;;;5.33;4.30;;;8.40;99.90;;;;;;5116372;28;20168;-67
2023/03/09 09:19:05;;;;;;;6.33;4.17;;;8.50;99.90;;;;;;5114858;28;20409;-67
2023/03/09 09:21:31;;;;;;;6.70;4.70;;;8.30;99.90;;;;;;5114985;28;20200;-67
2023/03/09 09:23:56;;;;;;;8.07;4.73;;;8.40;99.90;;;;;;5123186;27;20164;-67
2023/03/09 09:26:22;;;;;;;4.30;3.33;;;8.50;99.90;;;;;;5134517;27;20172;-67
2023/03/09 09:28:48;;;;;;;5.80;3.97;;;8.40;99.90;;;;;;5146140;27;20853;-67
2023/03/09 09:31:18;;;;;;;3.83;3.53;;;8.30;99.90;;;;;;5136061;27;20192;-67
2023/03/09 09:33:43;;;;;;;5.27;4.03;;;8.50;99.90;;;;;;5126329;27;20228;-67
2023/03/09 09:36:15;;;;;;;4.43;4.00;;;9.00;99.90;;;;;;5114817;28;20817;-67
2023/03/09 09:38:41;;;;;;;7.33;4.23;;;9.40;99.90;;;;;;5114476;28;20247;-67
2023/03/09 09:41:28;;;;;;;3.90;3.60;;;9.80;99.90;;;;;;5114607;28;20431;-67
2023/03/09 09:44:00;;;;;;;4.13;3.73;;;10.40;99.90;;;;;;5114712;28;20407;-67
2023/03/09 09:46:28;;;;;;;7.57;4.23;;;10.90;99.90;;;;;;5114662;28;20467;-67
2023/03/09 09:48:53;;;;;;;4.20;2.87;;;11.20;99.90;;;;;;5114350;28;20399;-67
2023/03/09 09:51:30;;;;;;;3.17;2.87;;;11.40;99.90;;;;;;5125255;27;20428;-66
2023/03/09 09:54:20;;;;;;;8.67;5.17;;;11.20;99.90;;;;;;5135086;27;20637;-67
2023/03/09 09:56:56;;;;;;;4.13;2.63;;;11.00;99.90;;;;;;5135139;27;20398;-66
2023/03/09 09:59:41;;;;;;;5.43;3.57;;;10.90;99.90;;;;;;5136953;27;20390;-67
2023/03/09 10:02:09;;;;;;;4.77;2.90;;;11.20;99.90;;;;;;5135790;27;20496;-67
2023/03/09 10:04:46;;;;;;;6.30;4.70;;;11.20;99.90;;;;;;5126352;27;20468;-67
2023/03/09 10:07:22;;;;;;;5.30;4.27;;;11.30;99.90;;;;;;5113916;28;20453;-66
2023/03/09 10:10:15;;;;;;;4.60;3.67;;;10.90;99.90;;;;;;5114586;28;20410;-67
2023/03/09 10:12:41;;;;;;;6.97;4.23;;;11.10;99.90;;;;;;5124878;27;20824;-68
2023/03/09 10:15:16;;;;;;;5.67;3.70;;;11.20;99.90;;;;;;5120850;27;20581;-67
2023/03/09 10:17:50;;;;;;;11.50;4.60;;;11.40;99.90;;;;;;5114574;28;20401;-67
2023/03/09 10:20:36;;;;;;;5.93;5.03;;;11.30;99.90;;;;;;5114560;27;20398;-67
2023/03/09 10:23:19;;;;;;;5.33;4.50;;;11.30;99.90;;;;;;5113950;28;20398;-67
2023/03/09 10:25:46;;;;;;;5.67;4.17;;;11.40;99.90;;;;;;5112612;28;20409;-67
2023/03/09 10:28:18;;;;;;;8.13;4.93;;;11.50;99.90;;;;;;5113259;28;20459;-67
2023/03/09 10:31:09;;;;;;;4.80;4.00;;;11.60;99.90;;;;;;5113695;28;20444;-67
2023/03/09 10:33:49;;;;;;;10.07;4.53;;;11.50;99.90;;;;;;5115161;28;20458;-67
2023/03/09 10:36:29;;;;;;;8.20;4.33;;;11.00;99.90;;;;;;5146172;27;20478;-67
2023/03/09 10:38:56;;;;;;;5.53;4.40;;;10.80;99.90;;;;;;5133620;27;20420;-67
2023/03/09 10:41:22;;;;;;;6.63;5.40;;;10.60;99.90;;;;;;5131821;27;20451;-67
2023/03/09 10:43:48;;;;;;;7.67;4.40;;;10.60;99.90;;;;;;5113130;28;20391;-67
2023/03/09 10:46:20;;;;;;;5.73;4.40;;;10.50;99.90;;;;;;5113510;28;20490;-67
2023/03/09 10:48:47;;;;;;;4.00;3.40;;;10.70;99.90;;;;;;5113581;28;20394;-67
2023/03/09 10:51:33;;;;;;;13.27;8.67;;;10.80;99.90;;;;;;5114076;28;20554;-68
2023/03/09 10:54:22;;;;;;;5.23;4.70;;;10.80;99.90;;;;;;5113908;28;20407;-67
2023/03/09 10:56:48;;;;;;;5.87;4.27;;;10.70;99.90;;;;;;5113827;28;20393;-68
2023/03/09 10:59:16;;;;;;;9.20;4.73;;;10.80;99.90;;;;;;5122220;27;20768;-67
2023/03/09 11:01:45;;;;;;;5.23;3.63;;;10.80;99.90;;;;;;5112521;28;20284;-67
2023/03/09 11:04:23;;;;;;;9.37;4.53;;;10.80;99.90;;;;;;5117944;27;20398;-67
2023/03/09 11:06:53;;;;;;;5.97;4.10;;;10.90;99.90;;;;;;5132161;27;20505;-67
2023/03/09 11:09:40;;;;;;;5.63;3.90;;;11.00;99.90;;;;;;5123404;27;20544;-67
2023/03/09 11:12:08;;;;;;;7.40;5.13;;;11.20;99.90;;;;;;5098091;28;21016;-67
2023/03/09 11:14:41;;;;;;;6.33;4.60;;;11.70;99.90;;;;;;5113059;28;20410;-67
2023/03/09 11:17:24;;;;;;;7.70;5.47;;;12.20;99.90;;;;;;5116653;27;20406;-67
2023/03/09 11:19:49;;;;;;;8.47;5.00;;;12.40;99.90;;;;;;5134522;27;20390;-67
2023/03/09 11:22:16;;;;;;;7.53;5.57;;;12.60;99.90;;;;;;5134612;27;20962;-67
2023/03/09 11:24:45;;;;;;;24.03;13.40;;;13.00;99.90;;;;;;5134178;27;20157;-67
2023/03/09 11:27:21;;;;;;;9.10;7.53;;;13.10;99.90;;;;;;5134513;27;20405;-67
2023/03/09 11:30:12;;;;;;;7.93;6.23;;;13.20;99.90;;;;;;5132166;27;20439;-68
2023/03/09 11:32:38;;;;;;;7.60;4.90;;;12.80;99.90;;;;;;5133034;27;20490;-67
2023/03/09 11:35:04;;;;;;;6.47;5.87;;;12.30;99.90;;;;;;5133076;27;20448;-68
2023/03/09 11:37:47;;;;;;;8.60;6.10;;;11.90;99.90;;;;;;5132800;27;20164;-68
2023/03/09 11:40:20;;;;;;;7.80;5.90;;;11.80;99.90;;;;;;5134187;27;20402;-68
2023/03/09 11:42:47;;;;;;;8.60;5.23;;;11.80;99.90;;;;;;5144568;27;20936;-68
2023/03/09 11:45:29;;;;;;;7.40;5.03;;;11.90;99.90;;;;;;5133411;27;20398;-68
2023/03/09 11:48:14;;;;;;;5.77;5.10;;;12.00;99.90;;;;;;5124342;27;20410;-67
2023/03/09 11:50:52;;;;;;;6.87;5.13;;;11.90;99.90;;;;;;5133889;27;20551;-67
2023/03/09 11:53:24;;;;;;;6.57;5.63;;;11.90;99.90;;;;;;5134011;27;20449;-68
2023/03/09 11:55:55;;;;;;;7.03;5.70;;;12.10;99.90;;;;;;5133672;27;21095;-68
2023/03/09 11:58:28;;;;;;;7.90;5.43;;;12.20;99.90;;;;;;5117348;27;20391;-68
2023/03/09 12:01:05;;;;;;;5.17;4.60;;;12.30;99.90;;;;;;5112714;28;20820;-68
2023/03/09 12:03:36;;;;;;;10.30;5.50;;;12.40;99.90;;;;;;5112542;28;20398;-67
2023/03/09 12:06:16;;;;;;;9.90;6.63;;;12.50;99.90;;;;;;5128226;28;20419;-67
2023/03/09 12:08:44;;;;;;;7.10;5.73;;;12.50;99.90;;;;;;5112065;28;20931;-68
2023/03/09 12:11:16;;;;;;;8.13;5.33;;;12.50;99.90;;;;;;5112114;28;20971;-68
2023/03/09 12:14:00;;;;;;;7.30;5.70;;;12.70;99.90;;;;;;5115207;28;20426;-68
2023/03/09 12:16:47;;;;;;;8.33;7.10;;;12.70;99.90;;;;;;5116451;28;20984;-68
2023/03/09 12:19:21;;;;;;;8.73;6.00;;;12.70;99.90;;;;;;5119542;27;20495;-68
2023/03/09 12:21:58;;;;;;;9.30;6.10;;;12.70;99.90;;;;;;5116720;28;20406;-68
2023/03/09 12:24:30;;;;;;;6.67;5.97;;;12.60;99.90;;;;;;5116810;28;20390;-68
2023/03/09 12:27:19;;;;;;;9.50;6.20;;;12.50;99.90;;;;;;5127450;27;20398;-68
2023/03/09 12:29:54;;;;;;;6.70;5.30;;;12.30;99.90;;;;;;5136488;27;20999;-68
2023/03/09 12:32:26;;;;;;;8.83;5.40;;;12.20;99.90;;;;;;5137212;27;20547;-68
2023/03/09 12:34:54;;;;;;;7.47;5.93;;;12.10;99.90;;;;;;5137391;27;20451;-68
2023/03/09 12:37:35;;;;;;;8.33;5.93;;;12.10;99.90;;;;;;5121989;27;20475;-68
2023/03/09 12:40:16;;;;;;;8.80;6.60;;;12.00;99.90;;;;;;5115292;28;20451;-68
2023/03/09 12:42:44;;;;;;;9.63;6.40;;;11.90;99.90;;;;;;5117122;28;20798;-68
2023/03/09 12:45:16;;;;;;;9.47;6.60;;;11.90;99.90;;;;;;5116220;27;20403;-67
2023/03/09 12:47:43;;;;;;;6.90;5.83;;;11.70;99.90;;;;;;5116012;28;20403;-67
2023/03/09 12:50:20;;;;;;;8.10;6.50;;;11.60;99.90;;;;;;5124833;27;20485;-67
2023/03/09 12:52:46;;;;;;;8.43;6.07;;;11.50;99.90;;;;;;5139738;27;20442;-67